sensor_id;sensor_type;location;lat;lon;timestamp;P1;durP1;ratioP1;P2;durP2;ratioP2
32250;SDS011;41295;48.518;9.206;2022-12-26T00:01:15;8.10;;;4.80;;
32250;SDS011;41295;48.518;9.206;2022-12-26T00:03:20;6.78;;;4.47;;
32250;SDS011;41295;48.518;9.206;2022-12-26T00:05:25;8.07;;;4.00;;
32250;SDS011;41295;48.518;9.206;2022-12-26T00:07:27;9.40;;;4.95;;
32250;SDS011;41295;48.518;9.206;2022-12-26T00:09:31;9.40;;;5.03;;
32250;SDS011;41295;48.518;9.206;2022-12-26T00:11:33;7.57;;;4.63;;
32250;SDS011;41295;48.518;9.206;2022-12-26T00:13:37;8.60;;;4.28;;
32250;SDS011;41295;48.518;9.206;2022-12-26T00:15:42;6.28;;;4.00;;
32250;SDS011;41295;48.518;9.206;2022-12-26T00:17:44;7.07;;;4.30;;
32250;SDS011;41295;48.518;9.206;2022-12-26T00:19:47;6.03;;;4.53;;
32250;SDS011;41295;48.518;9.206;2022-12-26T00:21:51;6.30;;;4.38;;
32250;SDS011;41295;48.518;9.206;2022-12-26T00:23:54;6.50;;;4.03;;
32250;SDS011;41295;48.518;9.206;2022-12-26T00:26:00;5.30;;;4.07;;
32250;SDS011;41295;48.518;9.206;2022-12-26T00:28:04;6.57;;;4.55;;
32250;SDS011;41295;48.518;9.206;2022-12-26T00:30:07;6.63;;;4.70;;
32250;SDS011;41295;48.518;9.206;2022-12-26T00:32:11;5.53;;;3.75;;
32250;SDS011;41295;48.518;9.206;2022-12-26T00:34:13;6.40;;;4.22;;
32250;SDS011;41295;48.518;9.206;2022-12-26T00:36:17;8.00;;;4.32;;
32250;SDS011;41295;48.518;9.206;2022-12-26T00:38:22;8.13;;;4.28;;
32250;SDS011;41295;48.518;9.206;2022-12-26T00:40:25;6.75;;;3.58;;
32250;SDS011;41295;48.518;9.206;2022-12-26T00:42:27;8.23;;;4.85;;
32250;SDS011;41295;48.518;9.206;2022-12-26T00:44:30;5.70;;;3.85;;
32250;SDS011;41295;48.518;9.206;2022-12-26T00:46:32;11.57;;;4.38;;
32250;SDS011;41295;48.518;9.206;2022-12-26T00:48:35;5.40;;;3.78;;
32250;SDS011;41295;48.518;9.206;2022-12-26T00:50:38;6.90;;;3.90;;
32250;SDS011;41295;48.518;9.206;2022-12-26T00:52:41;7.07;;;4.13;;
32250;SDS011;41295;48.518;9.206;2022-12-26T00:54:45;6.13;;;3.85;;
32250;SDS011;41295;48.518;9.206;2022-12-26T00:56:48;5.72;;;3.70;;
32250;SDS011;41295;48.518;9.206;2022-12-26T00:58:51;7.15;;;4.60;;
32250;SDS011;41295;48.518;9.206;2022-12-26T01:00:53;8.02;;;4.32;;
32250;SDS011;41295;48.518;9.206;2022-12-26T01:02:57;6.28;;;3.83;;
32250;SDS011;41295;48.518;9.206;2022-12-26T01:05:00;6.43;;;4.18;;
32250;SDS011;41295;48.518;9.206;2022-12-26T01:07:02;6.07;;;3.90;;
32250;SDS011;41295;48.518;9.206;2022-12-26T01:09:05;7.57;;;3.83;;
32250;SDS011;41295;48.518;9.206;2022-12-26T01:11:09;6.18;;;3.47;;
32250;SDS011;41295;48.518;9.206;2022-12-26T01:13:14;5.93;;;3.47;;
32250;SDS011;41295;48.518;9.206;2022-12-26T01:15:16;5.85;;;3.60;;
32250;SDS011;41295;48.518;9.206;2022-12-26T01:17:19;7.07;;;3.67;;
32250;SDS011;41295;48.518;9.206;2022-12-26T01:19:21;4.70;;;3.40;;
32250;SDS011;41295;48.518;9.206;2022-12-26T01:21:24;6.43;;;3.70;;
32250;SDS011;41295;48.518;9.206;2022-12-26T01:23:27;5.25;;;3.70;;
32250;SDS011;41295;48.518;9.206;2022-12-26T01:25:30;5.82;;;3.67;;
32250;SDS011;41295;48.518;9.206;2022-12-26T01:27:34;5.53;;;3.50;;
32250;SDS011;41295;48.518;9.206;2022-12-26T01:29:36;6.85;;;3.40;;
32250;SDS011;41295;48.518;9.206;2022-12-26T01:31:39;7.30;;;3.75;;
32250;SDS011;41295;48.518;9.206;2022-12-26T01:33:41;6.82;;;3.88;;
32250;SDS011;41295;48.518;9.206;2022-12-26T01:35:48;6.78;;;3.33;;
32250;SDS011;41295;48.518;9.206;2022-12-26T01:37:52;4.43;;;3.35;;
32250;SDS011;41295;48.518;9.206;2022-12-26T01:39:56;5.97;;;3.40;;
32250;SDS011;41295;48.518;9.206;2022-12-26T01:41:58;5.03;;;3.60;;
32250;SDS011;41295;48.518;9.206;2022-12-26T01:44:03;5.60;;;3.20;;
32250;SDS011;41295;48.518;9.206;2022-12-26T01:46:08;4.03;;;3.13;;
32250;SDS011;41295;48.518;9.206;2022-12-26T01:48:14;4.97;;;3.60;;
32250;SDS011;41295;48.518;9.206;2022-12-26T01:50:26;7.15;;;3.45;;
32250;SDS011;41295;48.518;9.206;2022-12-26T01:52:34;4.38;;;3.15;;
32250;SDS011;41295;48.518;9.206;2022-12-26T01:54:39;5.60;;;3.38;;
32250;SDS011;41295;48.518;9.206;2022-12-26T01:56:47;10.50;;;3.67;;
32250;SDS011;41295;48.518;9.206;2022-12-26T01:58:50;4.50;;;3.53;;
32250;SDS011;41295;48.518;9.206;2022-12-26T02:00:58;4.68;;;3.30;;
32250;SDS011;41295;48.518;9.206;2022-12-26T02:03:04;4.28;;;3.30;;
32250;SDS011;41295;48.518;9.206;2022-12-26T02:05:26;5.55;;;3.53;;
32250;SDS011;41295;48.518;9.206;2022-12-26T02:07:37;4.68;;;3.17;;
32250;SDS011;41295;48.518;9.206;2022-12-26T02:09:41;7.28;;;3.38;;
32250;SDS011;41295;48.518;9.206;2022-12-26T02:11:46;5.05;;;3.30;;
32250;SDS011;41295;48.518;9.206;2022-12-26T02:14:13;5.78;;;3.00;;
32250;SDS011;41295;48.518;9.206;2022-12-26T02:16:18;5.63;;;3.60;;
32250;SDS011;41295;48.518;9.206;2022-12-26T02:18:21;3.90;;;3.05;;
32250;SDS011;41295;48.518;9.206;2022-12-26T02:20:24;4.25;;;3.17;;
32250;SDS011;41295;48.518;9.206;2022-12-26T02:22:38;6.18;;;4.03;;
32250;SDS011;41295;48.518;9.206;2022-12-26T02:27:31;7.20;;;3.50;;
32250;SDS011;41295;48.518;9.206;2022-12-26T02:29:47;4.10;;;3.22;;
32250;SDS011;41295;48.518;9.206;2022-12-26T02:32:14;4.35;;;3.58;;
32250;SDS011;41295;48.518;9.206;2022-12-26T02:34:23;6.22;;;3.85;;
32250;SDS011;41295;48.518;9.206;2022-12-26T02:36:41;5.78;;;4.25;;
32250;SDS011;41295;48.518;9.206;2022-12-26T02:38:56;5.82;;;3.22;;
32250;SDS011;41295;48.518;9.206;2022-12-26T02:41:33;5.70;;;3.85;;
32250;SDS011;41295;48.518;9.206;2022-12-26T02:43:46;4.50;;;3.22;;
32250;SDS011;41295;48.518;9.206;2022-12-26T02:46:01;4.38;;;3.08;;
32250;SDS011;41295;48.518;9.206;2022-12-26T02:48:32;3.85;;;3.05;;
32250;SDS011;41295;48.518;9.206;2022-12-26T02:50:49;6.65;;;3.25;;
32250;SDS011;41295;48.518;9.206;2022-12-26T02:53:19;4.05;;;3.35;;
32250;SDS011;41295;48.518;9.206;2022-12-26T02:55:48;6.30;;;3.10;;
32250;SDS011;41295;48.518;9.206;2022-12-26T02:58:14;4.95;;;3.55;;
32250;SDS011;41295;48.518;9.206;2022-12-26T03:00:39;5.13;;;3.00;;
32250;SDS011;41295;48.518;9.206;2022-12-26T03:03:04;8.00;;;3.05;;
32250;SDS011;41295;48.518;9.206;2022-12-26T03:05:32;4.88;;;3.25;;
32250;SDS011;41295;48.518;9.206;2022-12-26T03:07:55;6.28;;;3.30;;
32250;SDS011;41295;48.518;9.206;2022-12-26T03:10:18;5.35;;;3.05;;
32250;SDS011;41295;48.518;9.206;2022-12-26T03:12:42;6.78;;;3.15;;
32250;SDS011;41295;48.518;9.206;2022-12-26T03:15:06;10.27;;;3.20;;
32250;SDS011;41295;48.518;9.206;2022-12-26T03:17:13;4.90;;;3.17;;
32250;SDS011;41295;48.518;9.206;2022-12-26T03:19:27;3.88;;;2.80;;
32250;SDS011;41295;48.518;9.206;2022-12-26T03:21:35;5.60;;;3.22;;
32250;SDS011;41295;48.518;9.206;2022-12-26T03:23:43;6.05;;;2.83;;
32250;SDS011;41295;48.518;9.206;2022-12-26T03:25:49;4.63;;;3.17;;
32250;SDS011;41295;48.518;9.206;2022-12-26T03:28:13;5.22;;;3.03;;
32250;SDS011;41295;48.518;9.206;2022-12-26T03:30:16;3.45;;;2.58;;
32250;SDS011;41295;48.518;9.206;2022-12-26T03:32:40;3.45;;;2.58;;
32250;SDS011;41295;48.518;9.206;2022-12-26T03:34:44;7.00;;;3.35;;
32250;SDS011;41295;48.518;9.206;2022-12-26T03:38:58;5.90;;;3.60;;
32250;SDS011;41295;48.518;9.206;2022-12-26T03:41:11;7.13;;;3.60;;
32250;SDS011;41295;48.518;9.206;2022-12-26T03:43:45;4.50;;;3.08;;
32250;SDS011;41295;48.518;9.206;2022-12-26T03:46:15;4.25;;;2.80;;
32250;SDS011;41295;48.518;9.206;2022-12-26T03:48:43;4.30;;;3.00;;
32250;SDS011;41295;48.518;9.206;2022-12-26T03:51:10;4.80;;;3.00;;
32250;SDS011;41295;48.518;9.206;2022-12-26T03:53:41;4.85;;;3.22;;
32250;SDS011;41295;48.518;9.206;2022-12-26T03:56:09;4.88;;;3.03;;
32250;SDS011;41295;48.518;9.206;2022-12-26T03:58:36;5.22;;;3.17;;
32250;SDS011;41295;48.518;9.206;2022-12-26T04:01:00;6.25;;;3.28;;
32250;SDS011;41295;48.518;9.206;2022-12-26T04:03:26;4.28;;;3.03;;
32250;SDS011;41295;48.518;9.206;2022-12-26T04:05:49;7.03;;;2.72;;
32250;SDS011;41295;48.518;9.206;2022-12-26T04:08:12;4.43;;;2.95;;
32250;SDS011;41295;48.518;9.206;2022-12-26T04:10:41;3.80;;;2.92;;
32250;SDS011;41295;48.518;9.206;2022-12-26T04:13:04;3.30;;;2.58;;
32250;SDS011;41295;48.518;9.206;2022-12-26T04:15:39;9.63;;;2.90;;
32250;SDS011;41295;48.518;9.206;2022-12-26T04:18:03;4.35;;;2.75;;
32250;SDS011;41295;48.518;9.206;2022-12-26T04:20:30;4.18;;;2.80;;
32250;SDS011;41295;48.518;9.206;2022-12-26T04:22:36;5.53;;;3.13;;
32250;SDS011;41295;48.518;9.206;2022-12-26T04:25:10;3.92;;;2.85;;
32250;SDS011;41295;48.518;9.206;2022-12-26T04:27:52;5.15;;;3.25;;
32250;SDS011;41295;48.518;9.206;2022-12-26T04:30:12;7.63;;;3.13;;
32250;SDS011;41295;48.518;9.206;2022-12-26T04:32:34;4.85;;;2.58;;
32250;SDS011;41295;48.518;9.206;2022-12-26T04:35:03;5.03;;;2.78;;
32250;SDS011;41295;48.518;9.206;2022-12-26T04:37:28;3.78;;;2.90;;
32250;SDS011;41295;48.518;9.206;2022-12-26T04:39:50;4.53;;;2.97;;
32250;SDS011;41295;48.518;9.206;2022-12-26T04:42:15;3.28;;;2.72;;
32250;SDS011;41295;48.518;9.206;2022-12-26T04:44:38;4.25;;;2.95;;
32250;SDS011;41295;48.518;9.206;2022-12-26T04:46:42;2.80;;;2.40;;
32250;SDS011;41295;48.518;9.206;2022-12-26T04:48:47;6.30;;;2.97;;
32250;SDS011;41295;48.518;9.206;2022-12-26T04:51:09;5.40;;;2.67;;
32250;SDS011;41295;48.518;9.206;2022-12-26T04:55:16;4.05;;;2.97;;
32250;SDS011;41295;48.518;9.206;2022-12-26T04:57:18;5.07;;;3.40;;
32250;SDS011;41295;48.518;9.206;2022-12-26T04:59:21;5.72;;;3.45;;
32250;SDS011;41295;48.518;9.206;2022-12-26T05:01:25;4.80;;;2.70;;
32250;SDS011;41295;48.518;9.206;2022-12-26T05:03:45;5.20;;;3.13;;
32250;SDS011;41295;48.518;9.206;2022-12-26T05:06:07;6.15;;;2.72;;
32250;SDS011;41295;48.518;9.206;2022-12-26T05:08:29;5.43;;;2.63;;
32250;SDS011;41295;48.518;9.206;2022-12-26T05:10:53;3.72;;;2.80;;
32250;SDS011;41295;48.518;9.206;2022-12-26T05:12:55;3.97;;;2.58;;
32250;SDS011;41295;48.518;9.206;2022-12-26T05:14:58;4.25;;;2.88;;
32250;SDS011;41295;48.518;9.206;2022-12-26T05:17:02;4.70;;;2.75;;
32250;SDS011;41295;48.518;9.206;2022-12-26T05:19:22;5.00;;;2.58;;
32250;SDS011;41295;48.518;9.206;2022-12-26T05:21:43;3.95;;;2.70;;
32250;SDS011;41295;48.518;9.206;2022-12-26T05:24:03;5.25;;;2.47;;
32250;SDS011;41295;48.518;9.206;2022-12-26T05:26:23;3.88;;;2.58;;
32250;SDS011;41295;48.518;9.206;2022-12-26T05:28:44;3.97;;;2.92;;
32250;SDS011;41295;48.518;9.206;2022-12-26T05:30:50;6.57;;;2.83;;
32250;SDS011;41295;48.518;9.206;2022-12-26T05:32:54;4.20;;;2.60;;
32250;SDS011;41295;48.518;9.206;2022-12-26T05:35:14;3.05;;;2.30;;
32250;SDS011;41295;48.518;9.206;2022-12-26T05:37:17;3.40;;;2.75;;
32250;SDS011;41295;48.518;9.206;2022-12-26T05:39:19;5.47;;;2.60;;
32250;SDS011;41295;48.518;9.206;2022-12-26T05:41:22;5.47;;;2.90;;
32250;SDS011;41295;48.518;9.206;2022-12-26T05:43:25;5.75;;;3.10;;
32250;SDS011;41295;48.518;9.206;2022-12-26T05:45:27;3.80;;;2.78;;
32250;SDS011;41295;48.518;9.206;2022-12-26T05:47:30;6.53;;;4.00;;
32250;SDS011;41295;48.518;9.206;2022-12-26T05:49:34;8.80;;;3.63;;
32250;SDS011;41295;48.518;9.206;2022-12-26T05:51:37;6.30;;;3.33;;
32250;SDS011;41295;48.518;9.206;2022-12-26T05:53:39;6.85;;;2.78;;
32250;SDS011;41295;48.518;9.206;2022-12-26T05:55:42;6.80;;;2.83;;
32250;SDS011;41295;48.518;9.206;2022-12-26T05:57:45;4.20;;;2.85;;
32250;SDS011;41295;48.518;9.206;2022-12-26T05:59:47;4.78;;;2.70;;
32250;SDS011;41295;48.518;9.206;2022-12-26T06:01:50;3.50;;;2.25;;
32250;SDS011;41295;48.518;9.206;2022-12-26T06:03:53;3.53;;;2.50;;
32250;SDS011;41295;48.518;9.206;2022-12-26T06:05:59;3.15;;;2.50;;
32250;SDS011;41295;48.518;9.206;2022-12-26T06:08:01;5.03;;;2.47;;
32250;SDS011;41295;48.518;9.206;2022-12-26T06:10:04;7.15;;;2.58;;
32250;SDS011;41295;48.518;9.206;2022-12-26T06:12:07;6.28;;;3.00;;
32250;SDS011;41295;48.518;9.206;2022-12-26T06:14:10;7.18;;;2.72;;
32250;SDS011;41295;48.518;9.206;2022-12-26T06:16:13;9.65;;;3.97;;
32250;SDS011;41295;48.518;9.206;2022-12-26T06:18:18;4.35;;;2.53;;
32250;SDS011;41295;48.518;9.206;2022-12-26T06:20:21;4.95;;;2.75;;
32250;SDS011;41295;48.518;9.206;2022-12-26T06:22:25;4.03;;;2.60;;
32250;SDS011;41295;48.518;9.206;2022-12-26T06:24:30;8.27;;;3.08;;
32250;SDS011;41295;48.518;9.206;2022-12-26T06:26:32;4.07;;;2.42;;
32250;SDS011;41295;48.518;9.206;2022-12-26T06:28:35;7.93;;;2.70;;
32250;SDS011;41295;48.518;9.206;2022-12-26T06:30:38;3.80;;;3.00;;
32250;SDS011;41295;48.518;9.206;2022-12-26T06:32:41;3.30;;;2.47;;
32250;SDS011;41295;48.518;9.206;2022-12-26T06:34:43;3.38;;;2.67;;
32250;SDS011;41295;48.518;9.206;2022-12-26T06:36:46;6.18;;;2.78;;
32250;SDS011;41295;48.518;9.206;2022-12-26T06:38:50;4.25;;;3.25;;
32250;SDS011;41295;48.518;9.206;2022-12-26T06:40:53;3.88;;;2.75;;
32250;SDS011;41295;48.518;9.206;2022-12-26T06:42:56;5.05;;;2.97;;
32250;SDS011;41295;48.518;9.206;2022-12-26T06:44:59;4.65;;;2.97;;
32250;SDS011;41295;48.518;9.206;2022-12-26T06:47:01;4.78;;;3.00;;
32250;SDS011;41295;48.518;9.206;2022-12-26T06:49:04;4.45;;;3.13;;
32250;SDS011;41295;48.518;9.206;2022-12-26T06:51:08;3.60;;;2.75;;
32250;SDS011;41295;48.518;9.206;2022-12-26T06:53:13;4.05;;;3.03;;
32250;SDS011;41295;48.518;9.206;2022-12-26T06:55:16;5.60;;;3.15;;
32250;SDS011;41295;48.518;9.206;2022-12-26T06:57:19;4.85;;;3.47;;
32250;SDS011;41295;48.518;9.206;2022-12-26T06:59:22;6.82;;;3.50;;
32250;SDS011;41295;48.518;9.206;2022-12-26T07:01:25;4.28;;;3.03;;
32250;SDS011;41295;48.518;9.206;2022-12-26T07:03:28;4.68;;;2.90;;
32250;SDS011;41295;48.518;9.206;2022-12-26T07:05:31;4.43;;;3.25;;
32250;SDS011;41295;48.518;9.206;2022-12-26T07:07:37;10.38;;;3.38;;
32250;SDS011;41295;48.518;9.206;2022-12-26T07:09:39;4.30;;;2.95;;
32250;SDS011;41295;48.518;9.206;2022-12-26T07:11:44;4.18;;;2.95;;
32250;SDS011;41295;48.518;9.206;2022-12-26T07:13:48;4.43;;;3.20;;
32250;SDS011;41295;48.518;9.206;2022-12-26T07:15:50;6.05;;;3.15;;
32250;SDS011;41295;48.518;9.206;2022-12-26T07:17:53;5.45;;;3.17;;
32250;SDS011;41295;48.518;9.206;2022-12-26T07:19:56;4.68;;;3.35;;
32250;SDS011;41295;48.518;9.206;2022-12-26T07:21:59;5.35;;;3.65;;
32250;SDS011;41295;48.518;9.206;2022-12-26T07:24:01;5.70;;;3.25;;
32250;SDS011;41295;48.518;9.206;2022-12-26T07:26:04;4.82;;;3.50;;
32250;SDS011;41295;48.518;9.206;2022-12-26T07:28:09;5.75;;;3.13;;
32250;SDS011;41295;48.518;9.206;2022-12-26T07:30:11;5.63;;;3.40;;
32250;SDS011;41295;48.518;9.206;2022-12-26T07:32:14;5.65;;;3.55;;
32250;SDS011;41295;48.518;9.206;2022-12-26T07:34:17;4.32;;;3.05;;
32250;SDS011;41295;48.518;9.206;2022-12-26T07:36:19;4.45;;;3.25;;
32250;SDS011;41295;48.518;9.206;2022-12-26T07:38:23;5.53;;;3.45;;
32250;SDS011;41295;48.518;9.206;2022-12-26T07:40:26;4.47;;;3.13;;
32250;SDS011;41295;48.518;9.206;2022-12-26T07:42:29;4.82;;;3.38;;
32250;SDS011;41295;48.518;9.206;2022-12-26T07:44:33;5.43;;;3.25;;
32250;SDS011;41295;48.518;9.206;2022-12-26T07:46:36;6.93;;;3.05;;
32250;SDS011;41295;48.518;9.206;2022-12-26T07:48:39;4.53;;;3.17;;
32250;SDS011;41295;48.518;9.206;2022-12-26T07:50:41;4.43;;;3.28;;
32250;SDS011;41295;48.518;9.206;2022-12-26T07:52:47;6.20;;;3.45;;
32250;SDS011;41295;48.518;9.206;2022-12-26T07:54:49;8.73;;;3.60;;
32250;SDS011;41295;48.518;9.206;2022-12-26T07:56:52;5.10;;;3.20;;
32250;SDS011;41295;48.518;9.206;2022-12-26T07:59:17;5.30;;;3.35;;
32250;SDS011;41295;48.518;9.206;2022-12-26T08:01:21;4.93;;;3.47;;
32250;SDS011;41295;48.518;9.206;2022-12-26T08:03:24;5.88;;;3.70;;
32250;SDS011;41295;48.518;9.206;2022-12-26T08:05:26;6.05;;;3.78;;
32250;SDS011;41295;48.518;9.206;2022-12-26T08:07:29;7.30;;;3.70;;
32250;SDS011;41295;48.518;9.206;2022-12-26T08:09:32;5.93;;;3.78;;
32250;SDS011;41295;48.518;9.206;2022-12-26T08:11:34;8.55;;;4.18;;
32250;SDS011;41295;48.518;9.206;2022-12-26T08:13:37;5.70;;;3.63;;
32250;SDS011;41295;48.518;9.206;2022-12-26T08:15:39;7.32;;;4.20;;
32250;SDS011;41295;48.518;9.206;2022-12-26T08:17:44;7.00;;;3.45;;
32250;SDS011;41295;48.518;9.206;2022-12-26T08:19:46;6.07;;;3.63;;
32250;SDS011;41295;48.518;9.206;2022-12-26T08:21:49;5.13;;;3.60;;
32250;SDS011;41295;48.518;9.206;2022-12-26T08:23:51;5.88;;;4.03;;
32250;SDS011;41295;48.518;9.206;2022-12-26T08:25:54;5.95;;;3.50;;
32250;SDS011;41295;48.518;9.206;2022-12-26T08:27:57;7.47;;;4.10;;
32250;SDS011;41295;48.518;9.206;2022-12-26T08:30:00;8.82;;;4.05;;
32250;SDS011;41295;48.518;9.206;2022-12-26T08:32:03;5.38;;;3.90;;
32250;SDS011;41295;48.518;9.206;2022-12-26T08:34:07;6.45;;;4.03;;
32250;SDS011;41295;48.518;9.206;2022-12-26T08:36:10;7.72;;;4.15;;
32250;SDS011;41295;48.518;9.206;2022-12-26T08:38:14;8.52;;;3.78;;
32250;SDS011;41295;48.518;9.206;2022-12-26T08:40:16;6.75;;;4.30;;
32250;SDS011;41295;48.518;9.206;2022-12-26T08:42:39;13.63;;;4.75;;
32250;SDS011;41295;48.518;9.206;2022-12-26T08:45:02;6.97;;;4.20;;
32250;SDS011;41295;48.518;9.206;2022-12-26T08:47:05;9.48;;;4.13;;
32250;SDS011;41295;48.518;9.206;2022-12-26T08:49:09;6.35;;;3.65;;
32250;SDS011;41295;48.518;9.206;2022-12-26T08:51:12;9.05;;;4.90;;
32250;SDS011;41295;48.518;9.206;2022-12-26T08:53:16;8.30;;;4.63;;
32250;SDS011;41295;48.518;9.206;2022-12-26T08:55:20;10.90;;;4.32;;
32250;SDS011;41295;48.518;9.206;2022-12-26T08:57:23;8.88;;;4.78;;
32250;SDS011;41295;48.518;9.206;2022-12-26T08:59:25;6.93;;;4.60;;
32250;SDS011;41295;48.518;9.206;2022-12-26T09:01:29;8.85;;;4.90;;
32250;SDS011;41295;48.518;9.206;2022-12-26T09:03:32;8.32;;;4.07;;
32250;SDS011;41295;48.518;9.206;2022-12-26T09:05:36;8.55;;;4.88;;
32250;SDS011;41295;48.518;9.206;2022-12-26T09:07:39;7.15;;;4.80;;
32250;SDS011;41295;48.518;9.206;2022-12-26T09:09:42;7.80;;;5.00;;
32250;SDS011;41295;48.518;9.206;2022-12-26T09:11:45;7.07;;;4.50;;
32250;SDS011;41295;48.518;9.206;2022-12-26T09:13:48;7.47;;;4.50;;
32250;SDS011;41295;48.518;9.206;2022-12-26T09:15:50;8.98;;;5.40;;
32250;SDS011;41295;48.518;9.206;2022-12-26T09:17:53;8.15;;;5.07;;
32250;SDS011;41295;48.518;9.206;2022-12-26T09:19:56;8.57;;;5.13;;
32250;SDS011;41295;48.518;9.206;2022-12-26T09:22:00;9.63;;;5.70;;
32250;SDS011;41295;48.518;9.206;2022-12-26T09:24:20;10.00;;;5.05;;
32250;SDS011;41295;48.518;9.206;2022-12-26T09:26:23;8.85;;;4.97;;
32250;SDS011;41295;48.518;9.206;2022-12-26T09:28:26;7.20;;;4.57;;
32250;SDS011;41295;48.518;9.206;2022-12-26T09:30:28;9.77;;;4.88;;
32250;SDS011;41295;48.518;9.206;2022-12-26T09:32:31;10.65;;;5.38;;
32250;SDS011;41295;48.518;9.206;2022-12-26T09:34:34;10.73;;;5.70;;
32250;SDS011;41295;48.518;9.206;2022-12-26T09:36:37;9.27;;;4.80;;
32250;SDS011;41295;48.518;9.206;2022-12-26T09:38:43;9.55;;;4.20;;
32250;SDS011;41295;48.518;9.206;2022-12-26T09:40:49;6.22;;;3.92;;
32250;SDS011;41295;48.518;9.206;2022-12-26T09:43:07;9.23;;;4.25;;
32250;SDS011;41295;48.518;9.206;2022-12-26T09:45:18;8.43;;;4.13;;
32250;SDS011;41295;48.518;9.206;2022-12-26T09:47:29;8.20;;;4.45;;
32250;SDS011;41295;48.518;9.206;2022-12-26T09:49:35;7.65;;;4.07;;
32250;SDS011;41295;48.518;9.206;2022-12-26T09:51:45;10.60;;;4.78;;
32250;SDS011;41295;48.518;9.206;2022-12-26T09:53:52;7.43;;;4.22;;
32250;SDS011;41295;48.518;9.206;2022-12-26T09:55:57;10.48;;;4.88;;
32250;SDS011;41295;48.518;9.206;2022-12-26T09:58:03;11.77;;;4.57;;
32250;SDS011;41295;48.518;9.206;2022-12-26T10:00:16;9.88;;;4.93;;
32250;SDS011;41295;48.518;9.206;2022-12-26T10:02:22;6.00;;;4.05;;
32250;SDS011;41295;48.518;9.206;2022-12-26T10:04:28;11.57;;;4.65;;
32250;SDS011;41295;48.518;9.206;2022-12-26T10:06:33;8.57;;;5.32;;
32250;SDS011;41295;48.518;9.206;2022-12-26T10:08:57;13.13;;;5.40;;
32250;SDS011;41295;48.518;9.206;2022-12-26T10:11:18;6.60;;;4.55;;
32250;SDS011;41295;48.518;9.206;2022-12-26T10:13:33;10.90;;;5.40;;
32250;SDS011;41295;48.518;9.206;2022-12-26T10:15:42;13.40;;;5.57;;
32250;SDS011;41295;48.518;9.206;2022-12-26T10:17:53;10.73;;;5.55;;
32250;SDS011;41295;48.518;9.206;2022-12-26T10:20:05;12.17;;;5.47;;
32250;SDS011;41295;48.518;9.206;2022-12-26T10:22:27;10.88;;;4.90;;
32250;SDS011;41295;48.518;9.206;2022-12-26T10:24:42;7.38;;;5.00;;
32250;SDS011;41295;48.518;9.206;2022-12-26T10:26:47;12.85;;;5.47;;
32250;SDS011;41295;48.518;9.206;2022-12-26T10:28:52;8.88;;;4.72;;
32250;SDS011;41295;48.518;9.206;2022-12-26T10:31:01;11.90;;;4.63;;
32250;SDS011;41295;48.518;9.206;2022-12-26T10:33:08;10.50;;;6.10;;
32250;SDS011;41295;48.518;9.206;2022-12-26T10:35:19;7.00;;;4.47;;
32250;SDS011;41295;48.518;9.206;2022-12-26T10:37:29;9.63;;;5.00;;
32250;SDS011;41295;48.518;9.206;2022-12-26T10:39:38;8.98;;;4.70;;
32250;SDS011;41295;48.518;9.206;2022-12-26T10:41:50;9.98;;;4.63;;
32250;SDS011;41295;48.518;9.206;2022-12-26T10:43:54;7.25;;;4.72;;
32250;SDS011;41295;48.518;9.206;2022-12-26T10:46:03;9.07;;;5.55;;
32250;SDS011;41295;48.518;9.206;2022-12-26T10:48:27;8.10;;;4.95;;
32250;SDS011;41295;48.518;9.206;2022-12-26T10:50:31;8.30;;;4.93;;
32250;SDS011;41295;48.518;9.206;2022-12-26T10:52:37;7.95;;;4.90;;
32250;SDS011;41295;48.518;9.206;2022-12-26T10:54:43;9.98;;;4.72;;
32250;SDS011;41295;48.518;9.206;2022-12-26T10:56:49;7.75;;;4.60;;
32250;SDS011;41295;48.518;9.206;2022-12-26T10:58:58;9.13;;;4.50;;
32250;SDS011;41295;48.518;9.206;2022-12-26T11:03:33;9.52;;;4.85;;
32250;SDS011;41295;48.518;9.206;2022-12-26T11:05:37;9.90;;;4.78;;
32250;SDS011;41295;48.518;9.206;2022-12-26T11:08:06;6.53;;;4.57;;
32250;SDS011;41295;48.518;9.206;2022-12-26T11:10:15;6.13;;;4.07;;
32250;SDS011;41295;48.518;9.206;2022-12-26T11:12:20;5.63;;;3.90;;
32250;SDS011;41295;48.518;9.206;2022-12-26T11:14:35;9.10;;;4.35;;
32250;SDS011;41295;48.518;9.206;2022-12-26T11:16:39;9.40;;;4.55;;
32250;SDS011;41295;48.518;9.206;2022-12-26T11:18:45;7.88;;;5.20;;
32250;SDS011;41295;48.518;9.206;2022-12-26T11:20:50;7.63;;;4.97;;
32250;SDS011;41295;48.518;9.206;2022-12-26T11:22:52;7.18;;;4.35;;
32250;SDS011;41295;48.518;9.206;2022-12-26T11:25:16;7.57;;;4.95;;
32250;SDS011;41295;48.518;9.206;2022-12-26T11:27:22;9.27;;;5.18;;
32250;SDS011;41295;48.518;9.206;2022-12-26T11:29:25;6.45;;;3.95;;
32250;SDS011;41295;48.518;9.206;2022-12-26T11:31:27;8.02;;;4.53;;
32250;SDS011;41295;48.518;9.206;2022-12-26T11:33:33;9.05;;;4.53;;
32250;SDS011;41295;48.518;9.206;2022-12-26T11:35:44;8.13;;;4.53;;
32250;SDS011;41295;48.518;9.206;2022-12-26T11:37:50;8.17;;;4.40;;
32250;SDS011;41295;48.518;9.206;2022-12-26T11:39:55;5.78;;;3.97;;
32250;SDS011;41295;48.518;9.206;2022-12-26T11:42:00;6.00;;;4.10;;
32250;SDS011;41295;48.518;9.206;2022-12-26T11:44:12;6.13;;;3.75;;
32250;SDS011;41295;48.518;9.206;2022-12-26T11:46:20;4.15;;;2.50;;
32250;SDS011;41295;48.518;9.206;2022-12-26T11:48:24;4.03;;;2.42;;
32250;SDS011;41295;48.518;9.206;2022-12-26T11:50:28;3.70;;;2.67;;
32250;SDS011;41295;48.518;9.206;2022-12-26T11:52:34;2.70;;;2.08;;
32250;SDS011;41295;48.518;9.206;2022-12-26T11:54:46;2.75;;;2.05;;
32250;SDS011;41295;48.518;9.206;2022-12-26T11:57:00;3.28;;;2.33;;
32250;SDS011;41295;48.518;9.206;2022-12-26T11:59:06;2.35;;;1.55;;
32250;SDS011;41295;48.518;9.206;2022-12-26T12:01:19;1.90;;;1.70;;
32250;SDS011;41295;48.518;9.206;2022-12-26T12:03:29;2.70;;;1.40;;
32250;SDS011;41295;48.518;9.206;2022-12-26T12:05:36;2.70;;;1.50;;
32250;SDS011;41295;48.518;9.206;2022-12-26T12:07:50;4.03;;;1.92;;
32250;SDS011;41295;48.518;9.206;2022-12-26T12:10:29;2.00;;;1.58;;
32250;SDS011;41295;48.518;9.206;2022-12-26T12:12:49;2.35;;;1.70;;
32250;SDS011;41295;48.518;9.206;2022-12-26T12:14:58;2.20;;;1.50;;
32250;SDS011;41295;48.518;9.206;2022-12-26T12:17:12;2.30;;;1.55;;
32250;SDS011;41295;48.518;9.206;2022-12-26T12:19:27;2.85;;;1.60;;
32250;SDS011;41295;48.518;9.206;2022-12-26T12:21:41;2.72;;;1.70;;
32250;SDS011;41295;48.518;9.206;2022-12-26T12:23:48;1.70;;;1.40;;
32250;SDS011;41295;48.518;9.206;2022-12-26T12:26:05;2.97;;;1.80;;
32250;SDS011;41295;48.518;9.206;2022-12-26T12:30:44;2.13;;;1.40;;
32250;SDS011;41295;48.518;9.206;2022-12-26T12:33:04;1.85;;;1.50;;
32250;SDS011;41295;48.518;9.206;2022-12-26T12:35:24;2.50;;;1.35;;
32250;SDS011;41295;48.518;9.206;2022-12-26T12:37:42;2.35;;;1.52;;
32250;SDS011;41295;48.518;9.206;2022-12-26T12:39:59;2.30;;;1.35;;
32250;SDS011;41295;48.518;9.206;2022-12-26T12:42:12;2.60;;;1.50;;
32250;SDS011;41295;48.518;9.206;2022-12-26T12:44:28;2.53;;;1.45;;
32250;SDS011;41295;48.518;9.206;2022-12-26T12:46:58;2.38;;;1.40;;
32250;SDS011;41295;48.518;9.206;2022-12-26T12:49:19;2.50;;;1.17;;
32250;SDS011;41295;48.518;9.206;2022-12-26T12:51:32;3.63;;;1.38;;
32250;SDS011;41295;48.518;9.206;2022-12-26T12:53:57;1.00;;;0.90;;
32250;SDS011;41295;48.518;9.206;2022-12-26T12:56:26;2.38;;;1.20;;
32250;SDS011;41295;48.518;9.206;2022-12-26T12:58:43;1.52;;;1.20;;
32250;SDS011;41295;48.518;9.206;2022-12-26T13:00:58;1.67;;;0.90;;
32250;SDS011;41295;48.518;9.206;2022-12-26T13:03:07;2.60;;;1.17;;
32250;SDS011;41295;48.518;9.206;2022-12-26T13:05:15;1.63;;;1.40;;
32250;SDS011;41295;48.518;9.206;2022-12-26T13:07:23;2.65;;;1.60;;
32250;SDS011;41295;48.518;9.206;2022-12-26T13:09:33;2.20;;;1.30;;
32250;SDS011;41295;48.518;9.206;2022-12-26T13:11:40;2.17;;;1.65;;